EFTP/TMP METAR and TAF weather

Enter ICAO airport designator
Station Type Date Time Source
EFTP METAR 2020/08/10 18:20 UTC NOAA

EFTP 101820Z AUTO 03007KT 360V070 CAVOK 18/08 Q1022


Station Type Date Time Source
EFTP Decoded METAR 2020/08/10 18:20 UTC NOAA

Tampere / Pirkkala, Finland (EFTP) 61-25N 023-35E 112M
Aug 10, 2020 - 02:20 PM EDT / 2020.08.10 1820 UTC
Wind: from the NNE (030 degrees) at 8 MPH (7 KT) (direction variable):0
Visibility: greater than 7 mile(s):0
Temperature: 64 F (18 C)
Dew Point: 46 F (8 C)
Relative Humidity: 51%
Pressure (altimeter): 30.18 in. Hg (1022 hPa)
ob: EFTP 101820Z AUTO 03007KT 360V070 CAVOK 18/08 Q1022
cycle: 18

Station Type Date Time Source
EFTP TAF 2020/08/10 18:42 UTC NOAA

TAF EFTP 101736Z 1018/1118 01007KT CAVOK

Example: see airport list